Time;durP1;ratioP1;P1;durP2;ratioP2;P2;SDS_P1;SDS_P2;PMS_P1;PMS_P2;Temp;Humidity;BMP_temperature;BMP_pressure;BME280_temperature;BME280_humidity;BME280_pressure;Samples;Min_cycle;Max_cycle;Signal;HPM_P1;HPM_P2
2022/09/20 03:58:05;;;;;;;3.87;1.95;;;;;;;11.87;82.54;100534.88;5606075;31;81053;-57
2022/09/20 04:01:36;;;;;;;3.05;1.90;;;;;;;11.87;82.54;100534.88;5584022;32;33362;-57
2022/09/20 04:04:51;;;;;;;2.35;1.95;;;;;;;11.31;82.94;100539.94;5583615;31;33618;-57
2022/09/20 04:08:16;;;;;;;2.95;2.05;;;;;;;11.41;81.86;100534.47;5583924;31;33594;-57
2022/09/20 04:11:39;;;;;;;4.43;2.10;;;;;;;11.41;83.01;100531.78;5584030;31;34219;-57
2022/09/20 04:14:53;;;;;;;4.22;2.05;;;;;;;11.38;82.50;100524.31;5583666;32;33835;-57
2022/09/20 04:18:08;;;;;;;4.43;2.03;;;;;;;11.50;83.07;100530.12;5583659;31;33794;-57
2022/09/20 04:21:22;;;;;;;4.28;1.80;;;;;;;11.68;81.45;100537.44;5584010;31;34243;-57
2022/09/20 04:24:27;;;;;;;3.78;2.12;;;;;;;11.77;80.60;100535.75;5583640;31;33684;-57
2022/09/20 04:27:40;;;;;;;2.55;1.77;;;;;;;11.83;79.91;100541.09;5578361;32;34290;-57
2022/09/20 04:30:45;;;;;;;2.17;1.80;;;;;;;11.81;80.72;100559.34;5564102;32;33679;-57
2022/09/20 04:33:50;;;;;;;4.43;2.35;;;;;;;11.87;80.07;100555.56;5564015;32;33896;-57
2022/09/20 04:36:57;;;;;;;4.43;1.87;;;;;;;11.82;79.85;100560.94;5564056;32;33571;-57
2022/09/20 04:40:35;;;;;;;2.35;1.90;;;;;;;11.79;81.01;100569.56;5563854;32;33644;-57
2022/09/20 04:44:16;;;;;;;3.45;2.12;;;;;;;11.67;81.43;100572.66;5563512;32;33303;-57
2022/09/20 04:47:48;;;;;;;2.95;1.85;;;;;;;11.58;81.83;100558.22;5568332;32;34278;-57
2022/09/20 04:51:17;;;;;;;4.68;1.90;;;;;;;11.69;80.82;100562.44;5580429;31;33749;-57
2022/09/20 04:54:57;;;;;;;5.12;1.77;;;;;;;11.51;82.03;100559.34;5580365;31;32943;-57
2022/09/20 04:58:35;;;;;;;3.05;2.35;;;;;;;11.39;82.67;100560.78;5583258;32;34313;-57
2022/09/20 05:02:02;;;;;;;3.97;2.22;;;;;;;11.38;82.56;100556.50;5574394;32;34233;-57
2022/09/20 05:05:43;;;;;;;2.97;2.10;;;;;;;11.52;81.64;100558.28;5580711;31;33706;-57
2022/09/20 05:08:51;;;;;;;4.22;2.53;;;;;;;11.39;83.47;100561.63;5545911;32;34012;-57
2022/09/20 05:12:15;;;;;;;3.33;2.40;;;;;;;11.55;81.75;100561.47;5569784;32;34285;-57
2022/09/20 05:15:35;;;;;;;3.12;2.30;;;;;;;11.51;82.31;100553.19;5569785;32;34243;-57
2022/09/20 05:18:59;;;;;;;5.53;2.37;;;;;;;11.47;81.30;100550.25;5569753;32;34697;-57
2022/09/20 05:22:07;;;;;;;4.28;2.40;;;;;;;11.60;81.91;100554.19;5562399;32;33802;-57
2022/09/20 05:25:24;;;;;;;5.43;2.40;;;;;;;11.59;82.12;100563.34;5562417;32;33618;-57
2022/09/20 05:28:37;;;;;;;5.62;2.67;;;;;;;11.68;82.13;100560.81;5568001;32;33826;-57
2022/09/20 05:31:40;;;;;;;3.65;2.30;;;;;;;11.84;81.63;100566.84;5568593;32;35191;-58
2022/09/20 05:34:51;;;;;;;4.05;2.60;;;;;;;11.88;79.11;100567.91;5558775;32;34504;-57
2022/09/20 05:38:12;;;;;;;6.10;2.70;;;;;;;12.08;79.78;100573.06;5559597;32;33665;-57
2022/09/20 05:41:34;;;;;;;7.37;2.85;;;;;;;12.25;78.32;100566.44;5563806;32;33705;-57
2022/09/20 05:45:00;;;;;;;4.45;2.83;;;;;;;12.22;77.45;100584.75;5558976;32;33698;-57
2022/09/20 05:48:31;;;;;;;3.37;2.37;;;;;;;12.41;77.24;100587.47;5554701;32;33859;-57
2022/09/20 05:52:01;;;;;;;6.85;3.00;;;;;;;12.35;78.07;100591.34;5567244;32;33838;-57
2022/09/20 05:55:22;;;;;;;4.65;2.50;;;;;;;12.20;79.64;100586.91;5565346;32;34241;-57
2022/09/20 05:58:37;;;;;;;4.03;2.85;;;;;;;12.16;79.60;100580.53;5566494;32;33725;-57
2022/09/20 06:02:02;;;;;;;4.20;2.10;;;;;;;12.19;78.80;100584.53;5567508;32;34520;-57
2022/09/20 06:05:33;;;;;;;3.87;2.53;;;;;;;12.33;77.42;100593.50;5566899;32;33707;-57
2022/09/20 06:09:03;;;;;;;4.05;2.40;;;;;;;12.28;79.87;100592.75;5567393;32;33257;-57
2022/09/20 06:12:17;;;;;;;3.22;1.75;;;;;;;12.23;76.26;100599.78;5560272;32;33757;-57
2022/09/20 06:15:33;;;;;;;2.83;2.00;;;;;;;12.25;76.04;100596.00;5565765;32;33603;-57
2022/09/20 06:18:50;;;;;;;4.47;2.08;;;;;;;12.28;75.49;100600.81;5564349;32;33775;-57
2022/09/20 06:21:54;;;;;;;2.90;1.83;;;;;;;12.27;77.36;100594.62;5567222;32;33832;-57
2022/09/20 06:25:06;;;;;;;7.82;2.10;;;;;;;12.23;76.08;100601.69;5564844;32;33718;-57
2022/09/20 06:28:18;;;;;;;5.22;2.17;;;;;;;12.36;78.98;100614.44;5567531;31;33688;-57
2022/09/20 06:31:21;;;;;;;3.75;1.98;;;;;;;12.41;79.25;100610.88;5566661;32;33716;-57
2022/09/20 06:34:23;;;;;;;7.65;2.70;;;;;;;12.56;79.89;100621.47;5563733;32;33637;-57
2022/09/20 06:44:26;;;;;;;3.28;1.95;;;;;;;12.44;80.44;100624.53;5565105;32;33602;-57
2022/09/20 06:47:28;;;;;;;4.30;2.12;;;;;;;12.47;80.29;100628.56;5567174;32;33849;-57
2022/09/20 06:50:35;;;;;;;2.33;1.92;;;;;;;12.53;78.62;100626.63;5567657;32;34398;-57
2022/09/20 06:53:39;;;;;;;4.47;2.20;;;;;;;12.65;78.31;100627.03;5568280;32;34302;-57
2022/09/20 06:56:43;;;;;;;3.42;2.47;;;;;;;12.67;78.58;100624.81;5556266;32;33736;-57
2022/09/20 06:59:45;;;;;;;4.15;2.30;;;;;;;12.69;78.49;100615.38;5567303;32;33773;-57
2022/09/20 07:02:48;;;;;;;3.87;2.15;;;;;;;12.86;78.16;100627.56;5567239;32;34308;-57
2022/09/20 07:05:50;;;;;;;3.10;2.00;;;;;;;12.90;78.45;100631.25;5567282;32;34236;-56
2022/09/20 07:08:52;;;;;;;2.78;2.30;;;;;;;13.06;77.63;100629.97;5567651;32;33544;-57
2022/09/20 07:11:55;;;;;;;4.85;2.17;;;;;;;13.14;76.65;100640.09;5566716;32;34320;-57
2022/09/20 07:14:57;;;;;;;4.20;2.30;;;;;;;13.16;74.37;100642.47;5566009;32;33570;-57
2022/09/20 07:17:59;;;;;;;4.68;2.17;;;;;;;13.19;74.88;100639.22;5568295;32;34215;-57
2022/09/20 07:21:04;;;;;;;4.30;2.05;;;;;;;13.28;74.71;100637.50;5568829;32;33639;-57
2022/09/20 07:24:06;;;;;;;4.87;2.35;;;;;;;13.31;75.46;100638.78;5565962;32;33683;-57
2022/09/20 07:27:10;;;;;;;5.95;3.60;;;;;;;13.39;75.28;100644.31;5567606;31;33227;-57
2022/09/20 07:30:13;;;;;;;2.95;2.05;;;;;;;13.45;73.29;100653.13;5565058;32;33472;-57
2022/09/20 07:33:20;;;;;;;3.80;2.50;;;;;;;13.51;74.45;100656.53;5567801;32;33820;-57
2022/09/20 07:36:22;;;;;;;5.22;2.30;;;;;;;13.36;73.45;100660.28;5567657;32;33653;-57
2022/09/20 07:39:25;;;;;;;7.32;2.40;;;;;;;13.37;72.53;100659.97;5565455;32;33597;-57
2022/09/20 07:42:27;;;;;;;2.78;2.15;;;;;;;13.29;71.19;100662.53;5563620;32;34210;-57
2022/09/20 07:45:30;;;;;;;4.35;2.40;;;;;;;13.42;70.56;100661.81;5567398;32;33955;-57
2022/09/20 07:48:34;;;;;;;3.37;2.22;;;;;;;13.50;71.99;100661.13;5566235;32;33304;-57
2022/09/20 07:51:37;;;;;;;5.15;2.62;;;;;;;13.54;72.03;100666.72;5567000;32;34305;-57
2022/09/20 07:54:39;;;;;;;3.37;2.20;;;;;;;13.52;72.57;100669.72;5567345;32;33758;-57
2022/09/20 07:57:42;;;;;;;3.85;2.17;;;;;;;13.55;70.78;100661.06;5566584;32;33238;-57
2022/09/20 08:00:44;;;;;;;3.42;2.30;;;;;;;13.58;71.01;100659.69;5561545;32;33225;-57
2022/09/20 08:03:46;;;;;;;4.82;2.12;;;;;;;13.63;71.68;100656.91;5564310;32;34367;-57
2022/09/20 08:06:48;;;;;;;3.28;2.20;;;;;;;13.62;71.34;100655.31;5561104;32;34247;-57
2022/09/20 08:09:51;;;;;;;5.95;2.28;;;;;;;13.66;70.30;100658.22;5549090;32;33639;-56
2022/09/20 08:12:53;;;;;;;2.20;2.00;;;;;;;13.66;69.16;100658.22;5553691;32;33194;-56
2022/09/20 08:16:19;;;;;;;6.85;2.00;;;;;;;13.68;69.49;100651.44;5547544;32;34415;-56
2022/09/20 08:19:22;;;;;;;2.87;2.15;;;;;;;13.71;70.45;100650.03;5547697;32;34625;-56
2022/09/20 08:22:24;;;;;;;3.17;2.10;;;;;;;13.83;70.43;100661.16;5564404;32;33689;-56
2022/09/20 08:25:27;;;;;;;2.35;1.80;;;;;;;13.85;68.19;100656.28;5564505;32;34384;-56
2022/09/20 08:28:30;;;;;;;5.45;1.90;;;;;;;13.90;69.63;100658.09;5564584;32;34273;-56
2022/09/20 08:31:35;;;;;;;4.78;1.80;;;;;;;14.10;68.35;100653.16;5565274;32;34048;-56
2022/09/20 08:34:39;;;;;;;5.00;1.95;;;;;;;14.28;66.47;100650.69;5565937;32;33753;-56
2022/09/20 08:37:45;;;;;;;3.15;1.55;;;;;;;14.32;66.88;100651.69;5566509;32;34244;-56
2022/09/20 08:40:50;;;;;;;2.55;1.67;;;;;;;14.31;64.67;100653.56;5563330;32;33601;-56
2022/09/20 08:43:59;;;;;;;2.28;1.75;;;;;;;14.30;66.10;100652.00;5567861;32;33848;-56
2022/09/20 08:47:34;;;;;;;2.50;1.50;;;;;;;14.30;64.17;100665.47;5568641;32;33598;-57
2022/09/20 08:50:36;;;;;;;2.97;1.90;;;;;;;14.19;64.28;100657.84;5566746;32;34435;-56
2022/09/20 08:53:45;;;;;;;3.42;1.83;;;;;;;14.21;64.19;100663.75;5567321;32;33316;-55
2022/09/20 08:56:51;;;;;;;4.05;1.75;;;;;;;14.02;66.07;100661.91;5568521;32;33645;-56
2022/09/20 08:59:53;;;;;;;2.05;1.62;;;;;;;14.16;65.24;100671.94;5565584;32;33626;-55
2022/09/20 09:02:59;;;;;;;2.00;1.35;;;;;;;14.31;67.42;100658.97;5565205;32;33782;-56
2022/09/20 09:06:02;;;;;;;;;;;;;;;14.38;63.76;100669.38;5569035;32;33610;-56
2022/09/20 09:09:22;;;;;;;3.53;1.75;;;;;;;14.35;64.48;100667.25;5567609;32;34131;-55
2022/09/20 09:12:29;;;;;;;4.12;2.10;;;;;;;14.36;63.97;100668.84;5568661;32;34358;-55
2022/09/20 09:15:39;;;;;;;5.25;1.45;;;;;;;14.28;63.98;100670.34;5567978;32;33924;-56
2022/09/20 09:18:45;;;;;;;2.33;1.40;;;;;;;14.25;64.94;100653.97;5565388;32;33684;-55
2022/09/20 09:21:47;;;;;;;3.15;1.62;;;;;;;14.24;64.54;100657.78;5561881;32;33667;-56
2022/09/20 09:25:09;;;;;;;2.62;1.60;;;;;;;14.19;62.99;100657.84;5568060;32;33156;-56
2022/09/20 09:28:14;;;;;;;1.87;1.40;;;;;;;14.29;64.07;100649.56;5566674;31;33781;-56
2022/09/20 09:31:24;;;;;;;3.45;1.87;;;;;;;14.23;64.50;100662.34;5567533;32;33915;-56
2022/09/20 09:34:37;;;;;;;2.62;1.77;;;;;;;14.28;63.90;100662.25;5564937;32;33718;-56
2022/09/20 09:37:52;;;;;;;4.47;1.58;;;;;;;14.33;63.99;100658.66;5557403;32;33771;-57
2022/09/20 09:40:59;;;;;;;2.47;1.50;;;;;;;14.30;64.00;100659.25;5566116;32;33313;-56
2022/09/20 09:44:09;;;;;;;3.25;1.42;;;;;;;14.43;65.43;100657.66;5566953;32;33603;-56
2022/09/20 09:47:26;;;;;;;1.62;1.37;;;;;;;14.54;62.30;100653.72;5567723;32;33765;-56
2022/09/20 09:50:33;;;;;;;3.67;1.73;;;;;;;14.57;63.03;100651.22;5567181;32;34462;-56
2022/09/20 09:53:36;;;;;;;3.75;1.70;;;;;;;14.66;63.76;100639.72;5567341;32;34582;-56
2022/09/20 09:56:51;;;;;;;3.10;1.73;;;;;;;14.70;62.92;100648.81;5568481;32;34412;-56
2022/09/20 10:00:12;;;;;;;2.85;1.50;;;;;;;14.85;61.14;100650.41;5567425;32;34250;-56
2022/09/20 10:03:58;;;;;;;4.18;1.98;;;;;;;14.87;62.13;100637.41;5557089;32;34467;-55
2022/09/20 10:07:53;;;;;;;2.08;1.87;;;;;;;14.82;62.08;100651.00;5566433;32;34293;-55
2022/09/20 10:11:14;;;;;;;2.30;1.73;;;;;;;14.89;61.80;100644.09;5536794;31;34338;-56
2022/09/20 10:14:35;;;;;;;3.67;1.90;;;;;;;14.87;63.11;100646.31;5557461;32;33505;-55
2022/09/20 10:17:51;;;;;;;5.87;1.95;;;;;;;15.00;61.72;100642.78;5567232;32;33668;-55
2022/09/20 10:21:11;;;;;;;3.15;1.80;;;;;;;15.04;62.40;100637.56;5563498;32;33664;-55
2022/09/20 10:24:17;;;;;;;2.45;1.60;;;;;;;15.02;61.61;100640.56;5566052;32;33844;-55
2022/09/20 10:28:06;;;;;;;2.93;1.80;;;;;;;14.96;60.39;100643.69;5560262;32;34341;-56
2022/09/20 10:31:24;;;;;;;2.45;1.52;;;;;;;14.93;62.12;100644.28;5556789;32;34650;-55
2022/09/20 10:34:46;;;;;;;2.35;1.70;;;;;;;14.84;59.33;100638.03;5554164;32;33637;-55
2022/09/20 10:38:21;;;;;;;2.85;1.73;;;;;;;14.83;58.97;100641.78;5559681;32;32140;-56
2022/09/20 10:45:19;;;;;;;1.40;1.30;;;;;;;15.00;59.83;100628.50;5562195;32;33796;-56
2022/09/20 10:48:51;;;;;;;3.10;2.05;;;;;;;15.17;59.80;100622.44;5557960;32;32307;-55
2022/09/20 10:52:07;;;;;;;2.00;1.67;;;;;;;15.34;58.93;100633.37;5553886;32;34025;-55
2022/09/20 10:55:36;;;;;;;3.83;1.50;;;;;;;15.31;57.51;100620.50;5561684;32;34448;-56
2022/09/20 10:58:48;;;;;;;1.95;1.50;;;;;;;15.45;58.62;100612.31;5561020;32;35090;-56
2022/09/20 11:02:28;;;;;;;1.87;1.42;;;;;;;15.46;57.78;100617.44;5547809;32;33718;-55
2022/09/20 11:05:34;;;;;;;3.60;1.60;;;;;;;15.58;59.00;100624.19;5492068;32;34253;-56
2022/09/20 11:08:39;;;;;;;2.65;1.48;;;;;;;15.63;56.97;100618.62;5557552;32;33810;-56
2022/09/20 11:11:48;;;;;;;3.50;1.80;;;;;;;15.45;57.80;100621.22;5559356;32;33326;-56
2022/09/20 11:14:58;;;;;;;3.05;1.37;;;;;;;15.44;60.18;100624.25;5555239;32;34990;-55
2022/09/20 11:18:08;;;;;;;1.30;1.20;;;;;;;15.44;57.17;100611.53;5554324;32;34221;-56
2022/09/20 11:21:20;;;;;;;4.57;1.90;;;;;;;15.54;60.10;100623.22;5562860;32;34461;-55
2022/09/20 11:24:47;;;;;;;4.15;1.73;;;;;;;15.49;61.81;100618.72;5549541;32;34407;-56
2022/09/20 11:28:00;;;;;;;2.42;1.52;;;;;;;15.39;62.25;100627.84;5555197;32;34166;-56
2022/09/20 11:31:21;;;;;;;3.33;1.77;;;;;;;15.33;61.57;100623.69;5552959;32;34425;-55
2022/09/20 11:34:30;;;;;;;2.83;1.70;;;;;;;15.20;61.40;100627.25;5562632;32;33773;-56
2022/09/20 11:37:39;;;;;;;3.78;1.90;;;;;;;15.09;62.61;100626.66;5561895;32;33201;-55
2022/09/20 11:40:51;;;;;;;2.60;1.90;;;;;;;14.97;64.34;100624.50;5560837;32;33709;-56
2022/09/20 11:43:58;;;;;;;4.43;1.85;;;;;;;14.99;66.52;100622.28;5548894;32;33700;-56
2022/09/20 11:47:06;;;;;;;4.87;1.80;;;;;;;15.03;68.70;100625.97;5555228;32;34035;-55
2022/09/20 11:50:43;;;;;;;3.85;1.92;;;;;;;15.02;67.11;100618.97;5564672;32;33645;-56
2022/09/20 11:54:03;;;;;;;5.20;1.80;;;;;;;14.99;67.28;100611.47;5552004;32;34657;-55
2022/09/20 11:57:12;;;;;;;3.55;1.80;;;;;;;15.02;70.47;100596.56;5546435;32;33739;-56
2022/09/20 12:00:16;;;;;;;2.20;1.80;;;;;;;15.10;70.00;100603.13;5562882;32;33632;-56
2022/09/20 12:03:27;;;;;;;7.43;1.50;;;;;;;15.03;67.40;100592.75;5552588;32;33727;-56
2022/09/20 12:06:37;;;;;;;3.60;1.70;;;;;;;15.15;67.43;100594.94;5557908;32;34423;-55
2022/09/20 12:09:43;;;;;;;3.15;1.50;;;;;;;15.13;68.36;100597.97;5564701;32;34475;-56
2022/09/20 12:12:48;;;;;;;4.10;1.45;;;;;;;15.05;65.12;100590.56;5563633;32;33243;-56
2022/09/20 12:16:04;;;;;;;3.90;1.25;;;;;;;15.04;66.15;100587.06;5562856;32;34044;-56
2022/09/20 12:19:25;;;;;;;;;;;;;;;15.10;63.42;100595.03;5562567;32;33326;-55
2022/09/20 12:22:28;;;;;;;2.75;1.20;;;;;;;15.12;63.29;100590.94;5554536;32;34004;-56
2022/09/20 12:25:37;;;;;;;2.30;1.10;;;;;;;15.16;62.80;100591.12;5559598;32;33646;-56
2022/09/20 12:28:48;;;;;;;3.15;2.22;;;;;;;15.20;62.90;100584.81;5556275;32;33765;-56
2022/09/20 12:31:54;;;;;;;2.50;1.52;;;;;;;15.32;63.23;100583.47;5568847;32;33373;-56
2022/09/20 12:34:56;;;;;;;1.85;1.30;;;;;;;15.47;62.32;100583.91;5562949;32;33333;-56
2022/09/20 12:38:22;;;;;;;2.22;1.23;;;;;;;15.49;62.24;100584.38;5562016;32;33689;-56
2022/09/20 12:41:25;;;;;;;2.15;1.35;;;;;;;15.47;61.42;100575.81;5568204;32;33628;-56
2022/09/20 12:44:48;;;;;;;2.83;1.37;;;;;;;15.57;61.10;100582.84;5569091;32;33897;-56
2022/09/20 12:47:53;;;;;;;4.15;1.33;;;;;;;15.50;59.36;100577.09;5554653;32;34321;-55
2022/09/20 12:54:53;;;;;;;3.55;1.30;;;;;;;15.60;59.97;100570.62;5549871;32;35107;-55
2022/09/20 12:58:14;;;;;;;2.62;1.30;;;;;;;15.61;59.40;100574.94;5556840;32;33766;-56
2022/09/20 13:01:16;;;;;;;1.83;1.00;;;;;;;15.57;58.22;100574.75;5570336;32;33636;-56
2022/09/20 13:04:54;;;;;;;2.30;1.10;;;;;;;15.47;58.51;100573.09;5570204;32;33730;-55
2022/09/20 13:08:22;;;;;;;1.00;0.90;;;;;;;15.55;58.47;100570.75;5570226;32;33689;-56
2022/09/20 13:11:38;;;;;;;1.83;1.48;;;;;;;15.60;62.61;100563.31;5570240;32;33903;-55
2022/09/20 13:14:41;;;;;;;1.90;1.20;;;;;;;15.60;58.99;100565.25;5570077;32;33386;-56
2022/09/20 13:17:43;;;;;;;2.65;1.15;;;;;;;15.74;59.80;100568.69;5568720;32;33807;-55
2022/09/20 13:20:46;;;;;;;1.77;1.05;;;;;;;15.84;58.24;100570.31;5570062;32;33817;-56
2022/09/20 13:23:53;;;;;;;1.45;1.12;;;;;;;15.86;58.76;100558.09;5569891;32;34274;-56
2022/09/20 13:27:01;;;;;;;3.42;1.50;;;;;;;15.90;57.60;100556.34;5570166;32;33661;-55
2022/09/20 13:30:20;;;;;;;1.62;1.10;;;;;;;15.93;59.97;100576.56;5569883;32;34287;-56
2022/09/20 13:33:24;;;;;;;3.03;1.40;;;;;;;15.90;59.47;100572.56;5569662;32;33629;-56
2022/09/20 13:36:28;;;;;;;2.55;1.33;;;;;;;15.79;59.04;100575.84;5551169;32;33614;-56
2022/09/20 13:39:35;;;;;;;1.95;1.50;;;;;;;15.70;58.32;100584.72;5555132;32;33621;-55
2022/09/20 13:42:37;;;;;;;1.25;1.15;;;;;;;15.58;57.95;100570.94;5569771;32;34479;-56
2022/09/20 13:45:42;;;;;;;1.92;1.12;;;;;;;15.51;58.44;100575.97;5563701;32;33598;-55
2022/09/20 13:48:52;;;;;;;3.10;1.48;;;;;;;15.52;59.48;100566.75;5566983;32;34261;-56
2022/09/20 13:51:55;;;;;;;1.20;1.10;;;;;;;15.71;60.67;100566.59;5569439;32;33882;-55
2022/09/20 13:54:57;;;;;;;2.00;1.20;;;;;;;15.79;60.89;100567.72;5569290;32;34380;-56
2022/09/20 13:58:03;;;;;;;1.15;0.90;;;;;;;15.83;60.05;100572.22;5569980;32;33816;-56
2022/09/20 14:01:18;;;;;;;1.65;1.00;;;;;;;15.94;57.33;100570.03;5564016;32;33619;-56
2022/09/20 14:04:23;;;;;;;;;;;;;;;15.89;56.88;100571.00;5555074;32;33346;-56
2022/09/20 14:07:27;;;;;;;1.25;0.98;;;;;;;15.79;56.03;100571.22;5566984;32;33911;-56
2022/09/20 14:10:33;;;;;;;1.87;0.90;;;;;;;15.74;56.99;100568.69;5569282;32;33476;-56
2022/09/20 14:13:40;;;;;;;;;;;;;;;15.78;56.20;100566.94;5566433;32;33692;-56
2022/09/20 14:16:45;;;;;;;3.12;1.10;;;;;;;15.87;56.01;100572.41;5569020;32;34708;-55
2022/09/20 14:19:50;;;;;;;1.50;0.95;;;;;;;15.80;54.52;100580.97;5568666;32;33642;-56
2022/09/20 14:22:54;;;;;;;1.10;0.98;;;;;;;15.72;53.84;100577.06;5569017;32;33705;-55
2022/09/20 14:26:15;;;;;;;2.42;0.70;;;;;;;15.69;53.77;100583.13;5569379;32;34061;-55
2022/09/20 14:29:32;;;;;;;2.28;0.80;;;;;;;15.55;54.14;100586.97;5569533;32;33678;-56
2022/09/20 14:32:51;;;;;;;1.20;0.90;;;;;;;15.56;55.80;100592.03;5569361;32;34333;-56
2022/09/20 14:35:54;;;;;;;3.25;0.80;;;;;;;15.44;53.13;100589.13;5569152;32;34667;-56
2022/09/20 14:39:01;;;;;;;0.70;0.70;;;;;;;15.35;52.75;100591.75;5569485;32;34457;-55
2022/09/20 14:42:27;;;;;;;0.60;0.60;;;;;;;15.34;53.21;100592.87;5568024;32;34414;-56
2022/09/20 14:45:34;;;;;;;1.02;0.85;;;;;;;15.34;52.66;100595.56;5569406;32;34325;-56
2022/09/20 14:48:40;;;;;;;1.75;0.82;;;;;;;15.45;52.00;100599.63;5569118;32;33681;-55
2022/09/20 14:51:43;;;;;;;0.82;0.68;;;;;;;15.56;52.28;100596.66;5569641;32;34300;-56
2022/09/20 14:55:01;;;;;;;1.58;0.60;;;;;;;15.62;51.26;100603.53;5569239;32;34111;-55
2022/09/20 14:58:12;;;;;;;0.60;0.60;;;;;;;15.67;52.11;100598.06;5564265;32;33591;-55
2022/09/20 15:01:23;;;;;;;0.98;0.68;;;;;;;15.70;51.22;100600.13;5567879;32;33626;-55
2022/09/20 15:04:27;;;;;;;0.82;0.62;;;;;;;15.60;51.69;100590.34;5569069;32;33713;-55
2022/09/20 15:07:29;;;;;;;1.87;0.90;;;;;;;15.58;53.52;100587.16;5567940;32;33675;-55
2022/09/20 15:10:31;;;;;;;1.50;0.70;;;;;;;15.60;53.22;100584.94;5568020;32;33706;-56
2022/09/20 15:13:34;;;;;;;3.00;1.10;;;;;;;15.66;54.02;100599.97;5567603;32;33771;-56
2022/09/20 15:16:37;;;;;;;2.15;1.05;;;;;;;15.66;54.94;100593.69;5569045;32;33718;-56
2022/09/20 15:19:39;;;;;;;1.95;1.10;;;;;;;15.59;56.62;100601.44;5568762;32;34328;-56
